This is the latest recevied weather packets stored in our database for station/object ED1ZAI-13. If no packets are shown the sender has not sent any weather packets the latest 1 day(s).
| Time | Temp. | Humidity | Pressure | Rain* | Wind** | Luminosity | Snow |
|---|---|---|---|---|---|---|---|
| 1778061686 | 12.22° C | 48% | 1011.7 hPa | 0 mm | - | - | - |
| 1778059885 | 12.78° C | 44% | 1011.6 hPa | 0 mm | - | - | - |
| 1778059285 | 12.78° C | 42% | 1011.4 hPa | 0 mm | - | - | - |
| 1778057484 | 14.44° C | 42% | 1011.4 hPa | 0 mm | - | - | - |
| 1778055541 | 12.78° C | 49% | 1011.4 hPa | 0 mm | - | - | - |
| 1778053142 | 8.33° C | 65% | 1011.6 hPa | 0 mm | - | - | - |
| 1778052542 | 9.44° C | 66% | 1011.6 hPa | 0 mm | - | - | - |
| 1778050740 | 6.11° C | 73% | 1011.7 hPa | 0 mm | - | - | - |
| 1778050142 | 6.11° C | 73% | 1011.6 hPa | 0 mm | - | - | - |
| 1778048341 | 5° C | 75% | 1011.5 hPa | 0 mm | - | - | - |
| 1778047140 | 5° C | 76% | 1011.5 hPa | 0 mm | - | - | - |
| 1778046542 | 5° C | 76% | 1011.4 hPa | 0 mm | - | - | - |
| 1778045940 | 5° C | 77% | 1011.3 hPa | 0 mm | - | - | - |
| 1778044141 | 4.44° C | 77% | 1011.2 hPa | 0 mm | - | - | - |
| 1778042939 | 3.89° C | 78% | 1011.2 hPa | 0 mm | - | - | - |
| 1778042341 | 3.89° C | 77% | 1011.2 hPa | 0 mm | - | - | - |
| 1778041294 | 3.89° C | 77% | 1011.2 hPa | 0 mm | - | - | - |
| 1778040694 | 3.89° C | 77% | 1011.2 hPa | 0 mm | - | - | - |
| 1778040094 | 3.89° C | 76% | 1011.2 hPa | 0 mm | - | - | - |
| 1778038893 | 5° C | 74% | 1011.2 hPa | 0 mm | - | - | - |
| 1778038295 | 5° C | 76% | 1011.3 hPa | 0 mm | - | - | - |
| 1778037695 | 5° C | 77% | 1011.3 hPa | 0 mm | - | - | - |
| 1778036494 | 3.89° C | 78% | 1011.2 hPa | 0 mm | - | - | - |
| 1778035894 | 4.44° C | 78% | 1011.2 hPa | 0 mm | - | - | - |
| 1778035294 | 4.44° C | 77% | 1011.1 hPa | 0 mm | - | - | - |
* Rain latest hour (hover to see other rain measurements)
** Current wind speed in m/s (hover to see current wind gust speed)